Harrisville, Mississippi
Current Conditions -  °F | °C
As of 7:28 PM on Sunday 21 Dec 2014 (Local Time) from KJAN Reporting Station
Overcast Overcast  
Wind Chill: 50°   Ceiling: 700
Heat Index: 50°   Visibility: 7mi
Dew Point: 47°   Wind: 12mph
Humidity: 89%   Direction: 130°SE
Pressure: 30.01"   Gusts: NA
Location:  31.97°N, 90.08°W
Report Text: KJAN 220128Z 13010KT 7SM OVC007 10/08 A3001 RMK AO2 T01000083
Loading
Personal Weather Stations






























Interactive Weather Map New forecast layout! Learn more

10-Day Weather Forecast

Advertisements
Track Severe Weather on mobile